sensor_id;sensor_type;location;lat;lon;timestamp;temperature;humidity
68493;HTU21D;55483;51.106;5.984;2022-12-07T08:11:19;4.90;118.99
68493;HTU21D;55483;51.106;5.984;2022-12-07T08:13:46;4.90;118.99
68493;HTU21D;55483;51.106;5.984;2022-12-07T08:16:15;4.96;118.99
68493;HTU21D;55483;51.106;5.984;2022-12-07T08:18:42;5.08;118.99
68493;HTU21D;55483;51.106;5.984;2022-12-07T08:21:12;5.16;118.99
68493;HTU21D;55483;51.106;5.984;2022-12-07T08:23:38;5.21;118.99
68493;HTU21D;55483;51.106;5.984;2022-12-07T08:26:07;5.28;118.99
68493;HTU21D;55483;51.106;5.984;2022-12-07T08:28:32;5.37;118.99
68493;HTU21D;55483;51.106;5.984;2022-12-07T08:31:03;5.43;118.99
68493;HTU21D;55483;51.106;5.984;2022-12-07T08:33:29;5.50;118.99
68493;HTU21D;55483;51.106;5.984;2022-12-07T08:35:55;5.68;118.99
68493;HTU21D;55483;51.106;5.984;2022-12-07T08:38:25;5.91;118.99
68493;HTU21D;55483;51.106;5.984;2022-12-07T08:40:58;6.13;118.99
68493;HTU21D;55483;51.106;5.984;2022-12-07T08:43:24;6.31;118.99
68493;HTU21D;55483;51.106;5.984;2022-12-07T08:48:41;6.55;118.99
68493;HTU21D;55483;51.106;5.984;2022-12-07T08:51:08;6.61;118.99
68493;HTU21D;55483;51.106;5.984;2022-12-07T08:53:35;6.65;118.99
68493;HTU21D;55483;51.106;5.984;2022-12-07T08:56:03;6.63;118.99
68493;HTU21D;55483;51.106;5.984;2022-12-07T08:58:29;6.56;118.99
68493;HTU21D;55483;51.106;5.984;2022-12-07T09:00:54;6.53;118.99
68493;HTU21D;55483;51.106;5.984;2022-12-07T09:03:20;6.48;118.99
68493;HTU21D;55483;51.106;5.984;2022-12-07T09:05:45;6.38;118.99
68493;HTU21D;55483;51.106;5.984;2022-12-07T09:08:12;6.27;118.99
68493;HTU21D;55483;51.106;5.984;2022-12-07T09:10:41;6.26;118.99
68493;HTU21D;55483;51.106;5.984;2022-12-07T09:13:08;6.36;118.99
68493;HTU21D;55483;51.106;5.984;2022-12-07T09:15:33;6.51;118.99
68493;HTU21D;55483;51.106;5.984;2022-12-07T09:18:00;6.60;118.99
68493;HTU21D;55483;51.106;5.984;2022-12-07T09:20:25;6.67;118.99
68493;HTU21D;55483;51.106;5.984;2022-12-07T09:22:51;6.81;118.99
68493;HTU21D;55483;51.106;5.984;2022-12-07T09:25:17;6.98;118.99
68493;HTU21D;55483;51.106;5.984;2022-12-07T09:27:42;7.14;118.99
68493;HTU21D;55483;51.106;5.984;2022-12-07T09:30:08;7.25;118.99
68493;HTU21D;55483;51.106;5.984;2022-12-07T09:32:35;7.32;118.99
68493;HTU21D;55483;51.106;5.984;2022-12-07T09:35:01;7.40;118.99
68493;HTU21D;55483;51.106;5.984;2022-12-07T09:37:26;7.45;118.99
68493;HTU21D;55483;51.106;5.984;2022-12-07T09:39:52;7.49;118.99
68493;HTU21D;55483;51.106;5.984;2022-12-07T09:42:28;7.52;118.99
68493;HTU21D;55483;51.106;5.984;2022-12-07T09:44:55;7.57;118.99
68493;HTU21D;55483;51.106;5.984;2022-12-07T09:47:22;7.59;118.99
68493;HTU21D;55483;51.106;5.984;2022-12-07T09:49:48;7.56;118.99
68493;HTU21D;55483;51.106;5.984;2022-12-07T09:52:26;7.46;118.99
68493;HTU21D;55483;51.106;5.984;2022-12-07T09:54:53;7.40;118.99
68493;HTU21D;55483;51.106;5.984;2022-12-07T09:57:30;7.35;118.99
68493;HTU21D;55483;51.106;5.984;2022-12-07T10:10:34;7.81;118.99
68493;HTU21D;55483;51.106;5.984;2022-12-07T10:13:10;7.94;118.99
68493;HTU21D;55483;51.106;5.984;2022-12-07T10:15:55;8.06;118.99
68493;HTU21D;55483;51.106;5.984;2022-12-07T10:18:31;8.28;118.99
68493;HTU21D;55483;51.106;5.984;2022-12-07T10:21:15;8.78;118.99
68493;HTU21D;55483;51.106;5.984;2022-12-07T10:26:38;9.27;118.99
68493;HTU21D;55483;51.106;5.984;2022-12-07T10:29:16;9.38;118.99
68493;HTU21D;55483;51.106;5.984;2022-12-07T10:31:45;9.35;118.99
68493;HTU21D;55483;51.106;5.984;2022-12-07T10:34:26;9.38;118.99
68493;HTU21D;55483;51.106;5.984;2022-12-07T10:36:53;9.40;118.99
68493;HTU21D;55483;51.106;5.984;2022-12-07T10:39:23;9.36;118.99
68493;HTU21D;55483;51.106;5.984;2022-12-07T10:42:03;9.31;118.99
68493;HTU21D;55483;51.106;5.984;2022-12-07T10:44:34;9.30;118.99
68493;HTU21D;55483;51.106;5.984;2022-12-07T10:58:48;9.48;118.99
68493;HTU21D;55483;51.106;5.984;2022-12-07T11:01:32;9.45;118.99
68493;HTU21D;55483;51.106;5.984;2022-12-07T11:06:57;9.94;118.99
68493;HTU21D;55483;51.106;5.984;2022-12-07T11:09:54;11.00;118.99
68493;HTU21D;55483;51.106;5.984;2022-12-07T11:18:00;11.83;109.17
68493;HTU21D;55483;51.106;5.984;2022-12-07T11:20:43;11.78;108.85
68493;HTU21D;55483;51.106;5.984;2022-12-07T11:37:21;11.23;118.99
68493;HTU21D;55483;51.106;5.984;2022-12-07T11:39:58;12.15;118.99
68493;HTU21D;55483;51.106;5.984;2022-12-07T11:42:33;12.77;108.29
68493;HTU21D;55483;51.106;5.984;2022-12-07T11:45:16;13.25;99.80
68493;HTU21D;55483;51.106;5.984;2022-12-07T11:53:14;13.44;87.09
68493;HTU21D;55483;51.106;5.984;2022-12-07T11:55:50;13.15;84.73
68493;HTU21D;55483;51.106;5.984;2022-12-07T12:04:23;11.81;89.66
68493;HTU21D;55483;51.106;5.984;2022-12-07T12:06:55;11.54;91.30
68493;HTU21D;55483;51.106;5.984;2022-12-07T12:09:48;11.30;93.75
68493;HTU21D;55483;51.106;5.984;2022-12-07T12:12:48;11.20;98.83
68493;HTU21D;55483;51.106;5.984;2022-12-07T12:18:32;11.36;106.18
68493;HTU21D;55483;51.106;5.984;2022-12-07T12:21:14;11.48;98.96
68493;HTU21D;55483;51.106;5.984;2022-12-07T12:24:15;11.57;99.24
68493;HTU21D;55483;51.106;5.984;2022-12-07T12:27:05;11.69;99.25
68493;HTU21D;55483;51.106;5.984;2022-12-07T12:29:41;11.88;99.02
68493;HTU21D;55483;51.106;5.984;2022-12-07T12:32:38;12.01;94.76
68493;HTU21D;55483;51.106;5.984;2022-12-07T12:35:30;11.91;93.59
68493;HTU21D;55483;51.106;5.984;2022-12-07T12:38:37;11.71;93.30
